createdAt,value
2018-03-31T00:00:59.686Z,998.55
2018-03-31T00:02:01.633Z,998.56
2018-03-31T00:03:03.010Z,998.55
2018-03-31T00:04:04.381Z,998.52
2018-03-31T00:05:05.750Z,998.52
2018-03-31T00:06:07.110Z,998.50
2018-03-31T00:07:08.490Z,998.45
2018-03-31T00:08:09.868Z,998.43
2018-03-31T00:09:11.251Z,998.48
2018-03-31T00:10:12.624Z,998.50
2018-03-31T00:11:13.993Z,998.51
2018-03-31T00:12:15.368Z,998.43
2018-03-31T00:13:16.723Z,998.45
2018-03-31T00:14:18.060Z,998.40
2018-03-31T00:15:19.428Z,998.41
2018-03-31T00:16:20.827Z,998.36
2018-03-31T00:17:22.171Z,998.33
2018-03-31T00:18:23.536Z,998.24
2018-03-31T00:19:24.906Z,998.19
2018-03-31T00:20:26.286Z,998.21
2018-03-31T00:21:27.654Z,998.21
2018-03-31T00:22:29.021Z,998.21
2018-03-31T00:23:30.414Z,998.22
2018-03-31T00:24:31.797Z,998.18
2018-03-31T00:25:33.177Z,998.21
2018-03-31T00:26:34.571Z,998.19
2018-03-31T00:27:35.937Z,998.21
2018-03-31T00:28:37.300Z,998.11
2018-03-31T00:29:39.290Z,998.12
2018-03-31T00:30:40.665Z,998.11
2018-03-31T00:31:42.025Z,998.15
2018-03-31T00:32:43.397Z,998.15
2018-03-31T00:33:44.767Z,998.17
2018-03-31T00:34:46.135Z,998.18
2018-03-31T00:35:47.514Z,998.12
2018-03-31T00:36:48.890Z,998.03
2018-03-31T00:37:50.270Z,997.98
2018-03-31T00:38:51.643Z,997.92
2018-03-31T00:39:53.001Z,997.90
2018-03-31T00:40:54.378Z,997.88
2018-03-31T00:41:55.748Z,997.91
2018-03-31T00:42:57.116Z,997.94
2018-03-31T00:43:58.484Z,997.90
2018-03-31T00:44:59.814Z,997.90
2018-03-31T00:46:01.184Z,997.96
2018-03-31T00:47:02.559Z,997.92
2018-03-31T00:48:03.930Z,997.83
2018-03-31T00:49:05.304Z,997.84
2018-03-31T00:50:06.682Z,997.95
2018-03-31T00:51:08.802Z,997.96
2018-03-31T00:52:10.162Z,997.98
2018-03-31T00:53:11.543Z,997.93
2018-03-31T00:54:12.903Z,997.97
2018-03-31T00:55:14.279Z,997.91
2018-03-31T00:56:15.652Z,997.98
2018-03-31T00:57:17.022Z,998.05
2018-03-31T00:58:18.391Z,998.03
2018-03-31T00:59:19.770Z,998.05
2018-03-31T01:00:21.146Z,998.06
2018-03-31T01:01:22.509Z,998.10
2018-03-31T01:02:23.882Z,998.14
2018-03-31T01:03:25.251Z,998.20
2018-03-31T01:04:26.624Z,998.19
2018-03-31T01:05:28.000Z,998.24
2018-03-31T01:06:29.364Z,998.28
2018-03-31T01:07:30.810Z,998.24
2018-03-31T01:08:32.192Z,998.16
2018-03-31T01:09:33.561Z,998.22
2018-03-31T01:10:34.938Z,998.15
2018-03-31T01:11:36.304Z,998.14
2018-03-31T01:12:37.672Z,998.17
2018-03-31T01:13:39.048Z,998.15
2018-03-31T01:14:40.424Z,998.11
2018-03-31T01:15:41.805Z,998.03
2018-03-31T01:16:43.181Z,998.03
2018-03-31T01:17:44.551Z,998.05
2018-03-31T01:18:45.915Z,998.09
2018-03-31T01:19:47.311Z,997.99
2018-03-31T01:20:48.682Z,998.01
2018-03-31T01:21:50.055Z,998.10
2018-03-31T01:22:51.435Z,998.12
2018-03-31T01:23:52.804Z,998.02
2018-03-31T01:24:54.185Z,997.94
2018-03-31T01:25:56.456Z,997.98
2018-03-31T01:26:56.892Z,997.93
2018-03-31T01:27:58.348Z,997.93
2018-03-31T01:28:59.719Z,997.87
2018-03-31T01:30:01.091Z,997.83
2018-03-31T01:31:02.462Z,997.85
2018-03-31T01:32:03.832Z,997.84
2018-03-31T01:33:05.205Z,997.80
2018-03-31T01:34:06.577Z,997.84
2018-03-31T01:35:07.941Z,997.79
2018-03-31T01:36:09.305Z,997.73
2018-03-31T01:37:10.676Z,997.75
2018-03-31T01:38:12.042Z,997.75
2018-03-31T01:39:13.413Z,997.73
2018-03-31T01:40:14.796Z,997.70
2018-03-31T01:41:16.182Z,997.64
2018-03-31T01:42:17.545Z,997.60
2018-03-31T01:43:18.906Z,997.65
2018-03-31T01:44:20.288Z,997.54
2018-03-31T01:45:21.654Z,997.58
2018-03-31T01:46:23.030Z,997.53
2018-03-31T01:47:24.405Z,997.42
2018-03-31T01:48:25.774Z,997.35
2018-03-31T01:49:27.156Z,997.32
2018-03-31T01:50:28.524Z,997.36
2018-03-31T01:51:29.911Z,997.36
2018-03-31T01:52:31.264Z,997.50
2018-03-31T01:53:32.638Z,997.53
2018-03-31T01:54:34.007Z,997.66
2018-03-31T01:55:35.377Z,997.73
2018-03-31T01:56:36.756Z,997.77
2018-03-31T01:57:38.131Z,997.81
2018-03-31T01:58:39.494Z,997.87
2018-03-31T01:59:40.901Z,997.84
2018-03-31T02:00:42.260Z,997.88
2018-03-31T02:01:43.641Z,997.89
2018-03-31T02:02:45.002Z,997.90
2018-03-31T02:03:46.378Z,997.84
2018-03-31T02:04:47.748Z,997.85
2018-03-31T02:05:49.118Z,997.82
2018-03-31T02:06:50.488Z,997.75
2018-03-31T02:07:51.858Z,997.71
2018-03-31T02:08:53.228Z,997.67
2018-03-31T02:09:54.600Z,997.60
2018-03-31T02:10:55.975Z,997.53
2018-03-31T02:11:57.354Z,997.57
2018-03-31T02:12:58.723Z,997.55
2018-03-31T02:14:00.083Z,997.56
2018-03-31T02:15:01.457Z,997.56
2018-03-31T02:16:02.830Z,997.56
2018-03-31T02:17:04.192Z,997.63
2018-03-31T02:18:05.559Z,997.65
2018-03-31T02:19:06.928Z,997.67
2018-03-31T02:20:08.303Z,997.60
2018-03-31T02:21:09.674Z,997.64
2018-03-31T02:22:11.048Z,997.57
2018-03-31T02:23:12.412Z,997.45
2018-03-31T02:24:13.787Z,997.45
2018-03-31T02:25:15.157Z,997.42
2018-03-31T02:26:16.530Z,997.35
2018-03-31T02:27:17.902Z,997.34
2018-03-31T02:28:19.277Z,997.34
2018-03-31T02:29:20.648Z,997.27
2018-03-31T02:30:22.008Z,997.30
2018-03-31T02:31:23.395Z,997.34
2018-03-31T02:32:24.766Z,997.30
2018-03-31T02:33:26.134Z,997.31
2018-03-31T02:34:28.153Z,997.28
2018-03-31T02:35:29.522Z,997.30
2018-03-31T02:36:31.653Z,997.33
2018-03-31T02:37:33.009Z,997.39
2018-03-31T02:38:35.272Z,997.35
2018-03-31T02:39:36.651Z,997.32
2018-03-31T02:40:38.024Z,997.21
2018-03-31T02:41:39.393Z,997.24
2018-03-31T02:42:40.766Z,997.14
2018-03-31T02:43:42.149Z,997.11
2018-03-31T02:44:43.511Z,997.07
2018-03-31T02:45:44.884Z,997.02
2018-03-31T02:46:46.253Z,997.01
2018-03-31T02:47:47.626Z,996.91
2018-03-31T02:48:49.013Z,996.89
2018-03-31T02:49:50.956Z,996.83
2018-03-31T02:50:51.715Z,996.96
2018-03-31T02:51:53.087Z,996.90
2018-03-31T02:52:54.461Z,996.89
2018-03-31T02:53:55.834Z,996.86
2018-03-31T02:54:57.194Z,996.85
2018-03-31T02:55:58.585Z,996.87
2018-03-31T02:56:59.954Z,996.83
2018-03-31T02:58:01.333Z,996.85
2018-03-31T02:59:02.702Z,996.80
2018-03-31T03:00:04.069Z,996.65
2018-03-31T03:01:05.437Z,996.72
2018-03-31T03:02:06.819Z,996.62
2018-03-31T03:03:08.183Z,996.60
2018-03-31T03:04:09.551Z,996.60
2018-03-31T03:05:10.914Z,996.56
2018-03-31T03:06:12.288Z,996.53
2018-03-31T03:07:13.646Z,996.54
2018-03-31T03:08:15.026Z,996.47
2018-03-31T03:09:16.395Z,996.54
2018-03-31T03:10:17.755Z,996.60
2018-03-31T03:11:19.137Z,996.60
2018-03-31T03:12:20.504Z,996.62
2018-03-31T03:13:21.871Z,996.66
2018-03-31T03:14:23.237Z,996.59
2018-03-31T03:15:24.618Z,996.59
2018-03-31T03:16:26.005Z,996.57
2018-03-31T03:17:28.113Z,996.62
2018-03-31T03:18:29.570Z,996.60
2018-03-31T03:19:30.944Z,996.61
2018-03-31T03:20:32.318Z,996.56
2018-03-31T03:21:33.685Z,996.55
2018-03-31T03:22:35.050Z,996.58
2018-03-31T03:23:36.414Z,996.54
2018-03-31T03:24:37.790Z,996.56
2018-03-31T03:25:39.168Z,996.55
2018-03-31T03:26:40.538Z,996.56
2018-03-31T03:27:41.908Z,996.56
2018-03-31T03:28:43.270Z,996.57
2018-03-31T03:29:44.642Z,996.60
2018-03-31T03:30:46.019Z,996.63
2018-03-31T03:31:47.387Z,996.62
2018-03-31T03:32:48.759Z,996.60
2018-03-31T03:33:50.128Z,996.54
2018-03-31T03:34:51.495Z,996.48
2018-03-31T03:35:52.864Z,996.45
2018-03-31T03:36:54.245Z,996.40
2018-03-31T03:37:55.615Z,996.36
2018-03-31T03:38:56.985Z,996.32
2018-03-31T03:39:59.093Z,996.27
2018-03-31T03:41:00.468Z,996.17
2018-03-31T03:42:01.845Z,996.20
2018-03-31T03:43:03.193Z,996.15
2018-03-31T03:44:04.565Z,996.16
2018-03-31T03:45:05.935Z,996.22
2018-03-31T03:46:07.309Z,996.19
2018-03-31T03:47:08.683Z,996.29
2018-03-31T03:48:10.058Z,996.28
2018-03-31T03:49:11.432Z,996.31
2018-03-31T03:50:12.796Z,996.30
2018-03-31T03:51:14.172Z,996.32
2018-03-31T03:52:15.546Z,996.30
2018-03-31T03:53:16.922Z,996.31
2018-03-31T03:54:18.292Z,996.28
2018-03-31T03:55:19.658Z,996.24
2018-03-31T03:56:22.020Z,996.27
2018-03-31T03:57:23.389Z,996.19
2018-03-31T03:58:24.758Z,996.19
2018-03-31T03:59:26.124Z,996.27
2018-03-31T04:00:27.506Z,996.29
2018-03-31T04:01:28.876Z,996.38
2018-03-31T04:02:30.247Z,996.33
2018-03-31T04:03:31.619Z,996.38
2018-03-31T04:04:32.995Z,996.36
2018-03-31T04:05:34.372Z,996.36
2018-03-31T04:06:35.737Z,996.33
2018-03-31T04:07:37.125Z,996.29
2018-03-31T04:08:38.493Z,996.27
2018-03-31T04:09:39.887Z,996.24
2018-03-31T04:10:41.253Z,996.27
2018-03-31T04:11:43.406Z,996.28
2018-03-31T04:12:44.775Z,996.25
2018-03-31T04:13:46.146Z,996.29
2018-03-31T04:14:47.517Z,996.27
2018-03-31T04:15:48.892Z,996.24
2018-03-31T04:16:50.256Z,996.29
2018-03-31T04:17:51.618Z,996.26
2018-03-31T04:18:52.999Z,996.24
2018-03-31T04:19:54.370Z,996.22
2018-03-31T04:20:55.743Z,996.26
2018-03-31T04:21:57.114Z,996.24
2018-03-31T04:22:58.490Z,996.21
2018-03-31T04:23:59.865Z,996.22
2018-03-31T04:25:01.233Z,996.26
2018-03-31T04:26:02.611Z,996.29
2018-03-31T04:27:04.009Z,996.30
2018-03-31T04:28:05.378Z,996.29
2018-03-31T04:29:06.754Z,996.28
2018-03-31T04:30:08.119Z,996.25
2018-03-31T04:31:09.495Z,996.25
2018-03-31T04:32:10.871Z,996.27
2018-03-31T04:33:12.236Z,996.31
2018-03-31T04:34:13.602Z,996.35
2018-03-31T04:35:14.964Z,996.33
2018-03-31T04:36:16.337Z,996.32
2018-03-31T04:37:17.718Z,996.34
2018-03-31T04:38:19.082Z,996.34
2018-03-31T04:39:20.459Z,996.32
2018-03-31T04:40:21.823Z,996.37
2018-03-31T04:41:23.202Z,996.35
2018-03-31T04:42:24.573Z,996.32
2018-03-31T04:43:25.937Z,996.31
2018-03-31T04:44:27.318Z,996.27
2018-03-31T04:45:28.688Z,996.24
2018-03-31T04:46:30.052Z,996.22
2018-03-31T04:47:31.432Z,996.20
2018-03-31T04:48:32.797Z,996.18
2018-03-31T04:49:34.172Z,996.19
2018-03-31T04:50:35.536Z,996.16
2018-03-31T04:51:36.909Z,996.15
2018-03-31T04:52:38.284Z,996.17
2018-03-31T04:53:39.658Z,996.23
2018-03-31T04:54:41.035Z,996.27
2018-03-31T04:55:42.402Z,996.35
2018-03-31T04:56:43.775Z,996.36
2018-03-31T04:57:45.147Z,996.41
2018-03-31T04:58:46.514Z,996.40
2018-03-31T04:59:47.887Z,996.42
2018-03-31T05:00:49.259Z,996.43
2018-03-31T05:01:50.625Z,996.34
2018-03-31T05:02:52.019Z,996.28
2018-03-31T05:03:53.383Z,996.34
2018-03-31T05:04:54.753Z,996.27
2018-03-31T05:05:56.119Z,996.30
2018-03-31T05:06:57.495Z,996.25
2018-03-31T05:07:58.864Z,996.24
2018-03-31T05:09:00.234Z,996.21
2018-03-31T05:10:01.619Z,996.25
2018-03-31T05:11:02.983Z,996.19
2018-03-31T05:12:04.370Z,996.24
2018-03-31T05:13:05.744Z,996.25
2018-03-31T05:14:07.113Z,996.26
2018-03-31T05:15:08.482Z,996.27
2018-03-31T05:16:09.856Z,996.26
2018-03-31T05:17:11.234Z,996.27
2018-03-31T05:18:12.611Z,996.28
2018-03-31T05:19:13.982Z,996.23
2018-03-31T05:20:15.342Z,996.27
2018-03-31T05:21:16.720Z,996.33
2018-03-31T05:22:18.958Z,996.29
2018-03-31T05:23:20.334Z,996.30
2018-03-31T05:24:21.781Z,996.34
2018-03-31T05:25:23.145Z,996.36
2018-03-31T05:26:24.527Z,996.42
2018-03-31T05:27:25.898Z,996.44
2018-03-31T05:28:27.270Z,996.48
2018-03-31T05:29:28.655Z,996.49
2018-03-31T05:30:30.861Z,996.48
2018-03-31T05:31:32.246Z,996.46
2018-03-31T05:32:33.720Z,996.49
2018-03-31T05:33:35.101Z,996.51
2018-03-31T05:34:37.334Z,996.55
2018-03-31T05:35:38.705Z,996.54
2018-03-31T05:36:40.081Z,996.55
2018-03-31T05:37:41.457Z,996.58
2018-03-31T05:38:42.833Z,996.52
2018-03-31T05:39:44.204Z,996.49
2018-03-31T05:40:45.585Z,996.42
2018-03-31T05:41:46.964Z,996.38
2018-03-31T05:42:48.334Z,996.36
2018-03-31T05:43:49.724Z,996.29
2018-03-31T05:44:51.084Z,996.31
2018-03-31T05:45:52.465Z,996.28
2018-03-31T05:46:53.847Z,996.30
2018-03-31T05:47:55.214Z,996.25
2018-03-31T05:48:57.069Z,996.24
2018-03-31T05:49:58.446Z,996.22
2018-03-31T05:50:59.824Z,996.20
2018-03-31T05:52:01.200Z,996.18
2018-03-31T05:53:02.568Z,996.14
2018-03-31T05:54:04.581Z,996.16
2018-03-31T05:55:05.965Z,996.15
2018-03-31T05:56:07.342Z,996.19
2018-03-31T05:57:08.717Z,996.20
2018-03-31T05:58:10.085Z,996.23
2018-03-31T05:59:11.466Z,996.25
2018-03-31T06:00:12.839Z,996.22
2018-03-31T06:01:14.213Z,996.19
2018-03-31T06:02:15.596Z,996.19
2018-03-31T06:03:16.962Z,996.25
2018-03-31T06:04:18.342Z,996.18
2018-03-31T06:05:19.705Z,996.16
2018-03-31T06:06:21.080Z,996.13
2018-03-31T06:07:22.465Z,996.19
2018-03-31T06:08:23.834Z,996.13
2018-03-31T06:09:25.211Z,996.16
2018-03-31T06:10:26.590Z,996.13
2018-03-31T06:11:27.970Z,996.09
2018-03-31T06:12:29.342Z,996.08
2018-03-31T06:13:30.718Z,996.03
2018-03-31T06:14:32.090Z,996.01
2018-03-31T06:15:33.470Z,995.98
2018-03-31T06:16:34.838Z,996.01
2018-03-31T06:17:36.210Z,995.98
2018-03-31T06:18:37.604Z,995.97
2018-03-31T06:19:38.974Z,995.91
2018-03-31T06:20:40.342Z,995.95
2018-03-31T06:21:41.726Z,996.05
2018-03-31T06:22:43.098Z,995.95
2018-03-31T06:23:44.470Z,995.92
2018-03-31T06:24:45.874Z,995.97
2018-03-31T06:25:47.248Z,995.92
2018-03-31T06:26:48.623Z,995.89
2018-03-31T06:27:49.999Z,995.92
2018-03-31T06:28:51.368Z,995.94
2018-03-31T06:29:52.746Z,995.96
2018-03-31T06:30:54.135Z,995.97
2018-03-31T06:31:55.516Z,995.96
2018-03-31T06:32:56.897Z,995.94
2018-03-31T06:33:58.276Z,995.94
2018-03-31T06:34:59.657Z,995.99
2018-03-31T20:35:38.709Z,991.09
2018-03-31T20:36:40.067Z,991.12
2018-03-31T20:37:41.451Z,991.10
2018-03-31T20:38:42.816Z,991.08
2018-03-31T20:39:44.187Z,991.09
2018-03-31T20:40:45.550Z,991.06
2018-03-31T20:41:46.913Z,991.01
2018-03-31T20:42:48.288Z,991.01
2018-03-31T20:43:49.647Z,991.04
2018-03-31T20:44:51.019Z,990.97
2018-03-31T20:45:52.393Z,990.97
2018-03-31T20:46:53.767Z,990.91
2018-03-31T20:47:55.131Z,991.02
2018-03-31T20:48:56.490Z,990.97
2018-03-31T20:49:57.869Z,991.03
2018-03-31T20:50:59.245Z,990.95
2018-03-31T20:52:00.615Z,990.90
2018-03-31T20:53:01.990Z,990.95
2018-03-31T20:54:03.976Z,990.90
2018-03-31T20:55:05.351Z,990.88
2018-03-31T20:56:06.724Z,990.90
2018-03-31T20:57:08.095Z,990.90
2018-03-31T20:58:09.474Z,990.96
2018-03-31T20:59:10.844Z,990.96
2018-03-31T21:00:12.230Z,990.98
2018-03-31T21:01:13.618Z,990.94
2018-03-31T21:02:14.980Z,990.95
2018-03-31T21:03:16.359Z,990.96
2018-03-31T21:04:17.736Z,990.97
2018-03-31T21:05:19.113Z,990.97
2018-03-31T21:06:20.488Z,990.99
2018-03-31T21:07:22.609Z,990.99
2018-03-31T21:08:23.979Z,990.94
2018-03-31T21:09:25.350Z,990.96
2018-03-31T21:10:26.730Z,990.92
2018-03-31T21:11:28.100Z,990.91
2018-03-31T21:12:29.474Z,990.93
2018-03-31T21:13:30.845Z,990.95
2018-03-31T21:14:32.225Z,990.94
2018-03-31T21:15:33.592Z,990.91
2018-03-31T21:16:34.927Z,990.96
2018-03-31T21:17:36.250Z,990.93
2018-03-31T21:18:37.666Z,990.95
2018-03-31T21:19:39.001Z,990.92
2018-03-31T21:20:40.379Z,990.85
2018-03-31T21:21:44.996Z,990.85
2018-03-31T21:22:46.342Z,990.85
2018-03-31T21:23:47.707Z,990.84
2018-03-31T21:24:49.218Z,990.80
2018-03-31T21:25:50.596Z,990.81
2018-03-31T21:26:51.954Z,990.81
2018-03-31T21:27:53.424Z,990.79
2018-03-31T21:28:54.797Z,990.79
2018-03-31T21:29:56.160Z,990.78
2018-03-31T21:30:57.537Z,990.83
2018-03-31T21:31:58.910Z,990.81
2018-03-31T21:33:00.398Z,990.88
2018-03-31T21:34:01.769Z,990.89
2018-03-31T21:35:03.140Z,990.93
2018-03-31T21:36:04.654Z,990.96
2018-03-31T21:37:06.023Z,990.93
2018-03-31T21:38:07.392Z,990.96
2018-03-31T21:39:08.881Z,990.95
2018-03-31T21:40:10.256Z,990.94
2018-03-31T21:41:11.623Z,990.91
2018-03-31T21:42:13.069Z,990.90
2018-03-31T21:43:14.442Z,990.86
2018-03-31T21:44:15.818Z,990.83
2018-03-31T21:45:17.286Z,990.85
2018-03-31T21:46:18.653Z,990.82
2018-03-31T21:47:20.021Z,990.82
2018-03-31T21:48:21.446Z,990.84
2018-03-31T21:49:22.820Z,990.81
2018-03-31T21:50:24.193Z,990.80
2018-03-31T21:51:25.767Z,990.83
2018-03-31T21:52:27.140Z,990.85
2018-03-31T21:53:28.505Z,990.83
2018-03-31T21:54:29.998Z,990.88
2018-03-31T21:55:31.357Z,990.92
2018-03-31T21:56:32.771Z,990.85
2018-03-31T21:57:34.273Z,990.88
2018-03-31T21:58:35.755Z,990.83
2018-03-31T21:59:37.132Z,990.81
2018-03-31T22:00:38.506Z,990.82
2018-03-31T22:01:39.954Z,990.82
2018-03-31T22:02:41.328Z,990.80
2018-03-31T22:03:42.698Z,990.83
2018-03-31T22:04:44.253Z,990.83
2018-03-31T22:05:45.634Z,990.80
2018-03-31T22:06:46.998Z,990.82
2018-03-31T22:07:48.521Z,990.76
2018-03-31T22:08:49.892Z,990.78
2018-03-31T22:09:51.267Z,990.76
2018-03-31T22:10:52.763Z,990.77
2018-03-31T22:11:54.142Z,990.79
2018-03-31T22:12:55.854Z,990.70
2018-03-31T22:13:57.221Z,990.76
2018-03-31T22:14:58.587Z,990.73
2018-03-31T22:15:59.968Z,990.71
2018-03-31T22:17:01.325Z,990.69
2018-03-31T22:18:02.703Z,990.66
2018-03-31T22:19:04.083Z,990.71
2018-03-31T22:20:05.465Z,990.70
2018-03-31T22:21:06.832Z,990.67
2018-03-31T22:22:08.198Z,990.63
2018-03-31T22:23:09.571Z,990.66
2018-03-31T22:24:10.941Z,990.65
2018-03-31T22:25:15.166Z,990.61
2018-03-31T22:26:21.509Z,990.57
2018-03-31T22:27:22.830Z,990.56
2018-03-31T22:28:24.289Z,990.55
2018-03-31T22:29:25.656Z,990.54
2018-03-31T22:30:32.960Z,990.56
2018-03-31T22:31:34.279Z,990.54
2018-03-31T22:32:35.650Z,990.55
2018-03-31T22:33:37.073Z,990.54
2018-03-31T22:34:39.188Z,990.53
2018-03-31T22:35:40.557Z,990.56
2018-03-31T22:36:42.067Z,990.50
2018-03-31T22:37:43.433Z,990.46
2018-03-31T22:38:44.812Z,990.48
2018-03-31T22:39:46.365Z,990.45
2018-03-31T22:40:47.745Z,990.44
2018-03-31T22:41:49.112Z,990.48
2018-03-31T22:42:50.676Z,990.44
2018-03-31T22:43:52.038Z,990.42
2018-03-31T22:44:53.423Z,990.37
2018-03-31T22:45:54.893Z,990.36
2018-03-31T22:46:56.262Z,990.37
2018-03-31T22:47:57.630Z,990.36
2018-03-31T22:48:59.009Z,990.36
2018-03-31T22:50:00.377Z,990.35
2018-03-31T22:51:05.411Z,990.33
2018-03-31T22:52:06.911Z,990.33
2018-03-31T22:53:08.292Z,990.31
2018-03-31T22:54:09.663Z,990.27
2018-03-31T22:55:11.040Z,990.26
2018-03-31T22:56:12.427Z,990.29
2018-03-31T22:57:13.800Z,990.28
2018-03-31T22:58:15.183Z,990.26
2018-03-31T22:59:16.543Z,990.27
2018-03-31T23:00:17.912Z,990.23
2018-03-31T23:01:19.287Z,990.26
2018-03-31T23:02:20.657Z,990.27
2018-03-31T23:03:22.035Z,990.29
2018-03-31T23:04:23.398Z,990.24
2018-03-31T23:05:24.784Z,990.30
2018-03-31T23:06:26.204Z,990.31
2018-03-31T23:07:28.175Z,990.26
2018-03-31T23:08:29.548Z,990.29
2018-03-31T23:09:30.922Z,990.23
2018-03-31T23:10:32.284Z,990.25
2018-03-31T23:11:33.655Z,990.26
2018-03-31T23:12:35.636Z,990.28
2018-03-31T23:13:36.343Z,990.28
2018-03-31T23:14:37.884Z,990.27
2018-03-31T23:15:39.257Z,990.27
2018-03-31T23:16:40.647Z,990.25
2018-03-31T23:17:42.025Z,990.26
2018-03-31T23:18:43.640Z,990.26
2018-03-31T23:19:45.017Z,990.24
2018-03-31T23:20:46.379Z,990.27
2018-03-31T23:21:47.862Z,990.29
2018-03-31T23:22:49.239Z,990.32
2018-03-31T23:23:50.607Z,990.30
2018-03-31T23:24:52.012Z,990.27
2018-03-31T23:25:53.383Z,990.29
2018-03-31T23:26:54.761Z,990.30
2018-03-31T23:27:56.292Z,990.23
2018-03-31T23:28:57.612Z,990.24
2018-03-31T23:29:59.002Z,990.23
2018-03-31T23:31:00.376Z,990.23
2018-03-31T23:32:01.755Z,990.20
2018-03-31T23:33:03.212Z,990.23
2018-03-31T23:34:04.587Z,990.24
2018-03-31T23:35:05.964Z,990.24
2018-03-31T23:36:13.492Z,990.25
2018-03-31T23:37:14.814Z,990.24
2018-03-31T23:38:16.338Z,990.19
2018-03-31T23:39:17.704Z,990.22
2018-03-31T23:40:19.268Z,990.23
2018-03-31T23:41:20.636Z,990.23
2018-03-31T23:42:22.018Z,990.19
2018-03-31T23:43:23.481Z,990.19
2018-03-31T23:44:24.847Z,990.20
2018-03-31T23:45:26.210Z,990.22
2018-03-31T23:46:27.584Z,990.23
2018-03-31T23:47:29.501Z,990.19
2018-03-31T23:48:30.884Z,990.18
2018-03-31T23:49:32.252Z,990.19
2018-03-31T23:50:33.619Z,990.20
2018-03-31T23:51:35.079Z,990.20
2018-03-31T23:52:36.452Z,990.25
2018-03-31T23:53:37.814Z,990.27
2018-03-31T23:54:39.209Z,990.32
2018-03-31T23:55:40.672Z,990.27
2018-03-31T23:56:42.054Z,990.28
2018-03-31T23:57:43.426Z,990.31
2018-03-31T23:58:44.788Z,990.26
2018-03-31T23:59:46.158Z,990.29
